Details From GCXO - Tenerife Norte - Los Rodeos
To LPMA - Madeira
Flight Number -
Tags generated
Created
Modified
Stats Distance 254 nm / 471 km
Max Altitude 23,700 ft / 7,224 m
Waypoints 4
Social Downloads 0
Likes 0
Share

Download

Looking for another format? Having issues loading an existing format? Contact us
Advertisement - Login to hide

Notes

Basic altitude profile: - Ascent Rate: 2500ft/min - Ascent Speed: 250kts - Cruise Altitude: 35000ft - Cruise Speed: 420kts - Descent Rate: 1500ft/min - Descent Speed: 250kts Options: - Use NATs: yes - Use PACOTS: yes - Use low airways: yes - Use high airways: yes

Route

GCXO BRICK G851 ORTIS LPMA

ID Type Via Altitude (ft/m) Position (lat/lon) Dist (leg/tot) Name
O GCXO APT - 0 / 0 28.48266 / -16.34154 - / 0 nm Tenerife Norte - Los Rodeos
BRICK FIX - 23,700 / 7,224 29.59137 / -16.37289 66 / 66 nm
ORTIS FIX G851 (AWY-LO) 16,700 / 5,090 31.40696 / -16.55691 109 / 176 nm
O LPMA APT - 0 / 0 32.69770 / -16.77445 78 / 254 nm Madeira

Altitude Profile

Advertisement - Login to hide

Weather


0- 5 10 15 20 25 30 35+ Temperature / °C

Clouds and Precipitation
Forecast for 2022-05-27 18:00 UTC. Updated an hour ago

Ground ~20,000 ft ~40,000 ft Winds

GCXO

Details ICAO GCXO (TFN)
Name Tenerife Norte-Ciudad de La Laguna
Region Canary Islands
Timezone Atlantic/Canary (UTC+1.0)
Stats Elevation 2,077 ft / 633 m (AMSL)
Location 28.482700° -16.341700°
Runways 1
Magnetic Variation 4.483° W

METAR

GCXO 271630Z 31016KT 9999 SCT014 19/14 Q1019 NOSIG

Decode

TAF

TAF GCXO 271400Z 2715/2815 31014KT 9999 SCT015 TX20/2814Z TN14/2806Z TEMPO 2720/2809 BKN010 PROB40 TEMPO 2721/2808 2000 BCFG BKN003

Decode

Departure Runways

ID Width Length Bearing (true/mag) Surface Threshold Overrun Markings Lighting
12 148 ft / 45 m 10,399 ft / 3,170 m 110.67° / 115.15° ASPHALT 0 ft / 0 m 0 ft / 0 m PREC-APP CENTERLINE EDGE THRESHOLD SALS REIL-OMNI
30 148 ft / 45 m 10,399 ft / 3,170 m 290.69° / 295.17° ASPHALT 0 ft / 0 m 0 ft / 0 m PREC-APP CENTERLINE EDGE THRESHOLD ALSF-II REIL-OMNI

LPMA

Details ICAO LPMA (FNC)
Name Madeira/Funchal - Cristiano Ronaldo
Region Portugal
Timezone Atlantic/Madeira (UTC+1.0)
Stats Elevation 189 ft / 58 m (AMSL)
Location 32.697900° -16.774400°
Runways 1
Magnetic Variation 4.436° W

METAR

LPMA 271630Z 11004KT 050V150 9999 SCT016 21/14 Q1017

Decode

TAF

TAF LPMA 271100Z 2712/2812 21010KT 9999 SCT015 BECMG 2716/2718 VRB05KT TEMPO 2716/2812 FEW015 BKN030

Decode

Destination Runways

ID Width Length Bearing (true/mag) Surface Threshold Overrun Markings Lighting
05 148 ft / 45 m 9,133 ft / 2,784 m 44.60° / 49.03° ASPHALT 482 ft / 147 m 0 ft / 0 m PREC-APP CENTERLINE EDGE THRESHOLD TDZ REIL-OMNI
23 148 ft / 45 m 9,133 ft / 2,784 m 224.61° / 229.04° ASPHALT 482 ft / 147 m 0 ft / 0 m PREC-APP CENTERLINE EDGE THRESHOLD TDZ REIL-OMNI

Popular Alternatives